sensor_id;sensor_type;location;lat;lon;timestamp;P1;durP1;ratioP1;P2;durP2;ratioP2
11927;SDS011;6023;47.070;15.126;2022-12-13T00:01:46;7.23;;;4.80;;
11927;SDS011;6023;47.070;15.126;2022-12-13T00:04:18;7.60;;;4.37;;
11927;SDS011;6023;47.070;15.126;2022-12-13T00:06:47;6.50;;;4.20;;
11927;SDS011;6023;47.070;15.126;2022-12-13T00:09:17;4.97;;;3.63;;
11927;SDS011;6023;47.070;15.126;2022-12-13T00:11:46;6.87;;;4.10;;
11927;SDS011;6023;47.070;15.126;2022-12-13T00:14:15;6.60;;;4.50;;
11927;SDS011;6023;47.070;15.126;2022-12-13T00:16:44;6.93;;;4.43;;
11927;SDS011;6023;47.070;15.126;2022-12-13T00:19:14;10.43;;;6.83;;
11927;SDS011;6023;47.070;15.126;2022-12-13T00:21:44;13.33;;;8.07;;
11927;SDS011;6023;47.070;15.126;2022-12-13T00:24:13;14.10;;;8.30;;
11927;SDS011;6023;47.070;15.126;2022-12-13T00:26:41;16.03;;;9.50;;
11927;SDS011;6023;47.070;15.126;2022-12-13T00:29:10;15.03;;;8.93;;
11927;SDS011;6023;47.070;15.126;2022-12-13T00:31:39;15.70;;;9.30;;
11927;SDS011;6023;47.070;15.126;2022-12-13T00:34:25;17.57;;;9.70;;
11927;SDS011;6023;47.070;15.126;2022-12-13T00:36:56;13.57;;;7.97;;
11927;SDS011;6023;47.070;15.126;2022-12-13T00:39:26;10.83;;;6.57;;
11927;SDS011;6023;47.070;15.126;2022-12-13T00:41:55;11.30;;;6.53;;
11927;SDS011;6023;47.070;15.126;2022-12-13T00:44:24;12.67;;;7.33;;
11927;SDS011;6023;47.070;15.126;2022-12-13T00:46:52;16.70;;;8.90;;
11927;SDS011;6023;47.070;15.126;2022-12-13T00:49:22;16.60;;;8.50;;
11927;SDS011;6023;47.070;15.126;2022-12-13T00:51:50;14.10;;;7.57;;
11927;SDS011;6023;47.070;15.126;2022-12-13T00:54:20;15.67;;;8.03;;
11927;SDS011;6023;47.070;15.126;2022-12-13T00:56:49;16.97;;;8.93;;
11927;SDS011;6023;47.070;15.126;2022-12-13T00:59:18;14.67;;;7.93;;
11927;SDS011;6023;47.070;15.126;2022-12-13T01:01:46;13.13;;;7.83;;
11927;SDS011;6023;47.070;15.126;2022-12-13T01:04:15;12.43;;;7.20;;
11927;SDS011;6023;47.070;15.126;2022-12-13T01:06:44;13.87;;;8.17;;
11927;SDS011;6023;47.070;15.126;2022-12-13T01:09:16;14.83;;;9.43;;
11927;SDS011;6023;47.070;15.126;2022-12-13T01:11:48;12.83;;;7.77;;
11927;SDS011;6023;47.070;15.126;2022-12-13T01:14:17;12.50;;;7.80;;
11927;SDS011;6023;47.070;15.126;2022-12-13T01:16:46;11.60;;;7.67;;
11927;SDS011;6023;47.070;15.126;2022-12-13T01:19:14;11.40;;;7.40;;
11927;SDS011;6023;47.070;15.126;2022-12-13T01:21:43;11.60;;;7.07;;
11927;SDS011;6023;47.070;15.126;2022-12-13T01:24:11;10.97;;;7.40;;
11927;SDS011;6023;47.070;15.126;2022-12-13T01:26:40;12.43;;;7.43;;
11927;SDS011;6023;47.070;15.126;2022-12-13T01:29:10;15.40;;;8.93;;
11927;SDS011;6023;47.070;15.126;2022-12-13T01:31:39;15.47;;;9.43;;
11927;SDS011;6023;47.070;15.126;2022-12-13T01:34:08;15.77;;;9.90;;
11927;SDS011;6023;47.070;15.126;2022-12-13T01:36:39;14.97;;;9.60;;
11927;SDS011;6023;47.070;15.126;2022-12-13T01:39:09;13.10;;;8.80;;
11927;SDS011;6023;47.070;15.126;2022-12-13T01:41:41;10.97;;;7.43;;
11927;SDS011;6023;47.070;15.126;2022-12-13T01:47:19;8.10;;;5.47;;
11927;SDS011;6023;47.070;15.126;2022-12-13T01:49:51;6.80;;;4.43;;
11927;SDS011;6023;47.070;15.126;2022-12-13T01:52:25;5.33;;;3.60;;
11927;SDS011;6023;47.070;15.126;2022-12-13T01:54:55;5.57;;;3.80;;
11927;SDS011;6023;47.070;15.126;2022-12-13T01:57:29;5.13;;;3.80;;
11927;SDS011;6023;47.070;15.126;2022-12-13T01:59:58;6.23;;;4.40;;
11927;SDS011;6023;47.070;15.126;2022-12-13T02:02:28;5.73;;;4.20;;
11927;SDS011;6023;47.070;15.126;2022-12-13T02:04:58;6.10;;;4.23;;
11927;SDS011;6023;47.070;15.126;2022-12-13T02:07:32;7.60;;;4.47;;
11927;SDS011;6023;47.070;15.126;2022-12-13T02:10:02;6.77;;;4.23;;
11927;SDS011;6023;47.070;15.126;2022-12-13T02:12:33;5.97;;;3.60;;
11927;SDS011;6023;47.070;15.126;2022-12-13T02:15:04;5.40;;;3.90;;
11927;SDS011;6023;47.070;15.126;2022-12-13T02:17:43;5.50;;;3.33;;
11927;SDS011;6023;47.070;15.126;2022-12-13T02:20:45;4.40;;;3.33;;
11927;SDS011;6023;47.070;15.126;2022-12-13T02:26:41;3.77;;;2.50;;
11927;SDS011;6023;47.070;15.126;2022-12-13T02:29:39;3.70;;;2.67;;
11927;SDS011;6023;47.070;15.126;2022-12-13T02:32:33;4.30;;;2.90;;
11927;SDS011;6023;47.070;15.126;2022-12-13T02:35:06;3.80;;;2.90;;
11927;SDS011;6023;47.070;15.126;2022-12-13T02:37:40;4.30;;;3.00;;
11927;SDS011;6023;47.070;15.126;2022-12-13T02:40:15;4.73;;;3.30;;
11927;SDS011;6023;47.070;15.126;2022-12-13T02:42:49;3.40;;;2.60;;
11927;SDS011;6023;47.070;15.126;2022-12-13T02:45:24;4.73;;;3.07;;
11927;SDS011;6023;47.070;15.126;2022-12-13T02:47:58;4.80;;;3.00;;
11927;SDS011;6023;47.070;15.126;2022-12-13T02:50:27;4.50;;;2.87;;
11927;SDS011;6023;47.070;15.126;2022-12-13T02:52:57;3.77;;;2.50;;
11927;SDS011;6023;47.070;15.126;2022-12-13T02:55:27;3.77;;;2.40;;
11927;SDS011;6023;47.070;15.126;2022-12-13T02:57:58;3.20;;;2.40;;
11927;SDS011;6023;47.070;15.126;2022-12-13T03:00:28;2.50;;;2.30;;
11927;SDS011;6023;47.070;15.126;2022-12-13T03:03:09;3.27;;;2.40;;
11927;SDS011;6023;47.070;15.126;2022-12-13T03:05:41;2.40;;;2.20;;
11927;SDS011;6023;47.070;15.126;2022-12-13T03:08:35;4.30;;;2.77;;
11927;SDS011;6023;47.070;15.126;2022-12-13T03:11:11;3.03;;;2.20;;
11927;SDS011;6023;47.070;15.126;2022-12-13T03:13:43;2.83;;;2.23;;
11927;SDS011;6023;47.070;15.126;2022-12-13T03:16:24;3.83;;;2.30;;
11927;SDS011;6023;47.070;15.126;2022-12-13T03:18:58;3.20;;;2.20;;
11927;SDS011;6023;47.070;15.126;2022-12-13T03:21:28;3.00;;;2.47;;
11927;SDS011;6023;47.070;15.126;2022-12-13T03:23:57;4.27;;;2.60;;
11927;SDS011;6023;47.070;15.126;2022-12-13T03:26:26;3.60;;;2.27;;
11927;SDS011;6023;47.070;15.126;2022-12-13T03:28:55;2.90;;;2.27;;
11927;SDS011;6023;47.070;15.126;2022-12-13T03:31:24;2.97;;;2.30;;
11927;SDS011;6023;47.070;15.126;2022-12-13T03:33:53;5.50;;;3.83;;
11927;SDS011;6023;47.070;15.126;2022-12-13T03:36:23;11.03;;;6.90;;
11927;SDS011;6023;47.070;15.126;2022-12-13T03:38:52;7.27;;;4.43;;
11927;SDS011;6023;47.070;15.126;2022-12-13T03:41:22;5.60;;;3.57;;
11927;SDS011;6023;47.070;15.126;2022-12-13T03:43:57;4.10;;;2.87;;
11927;SDS011;6023;47.070;15.126;2022-12-13T03:46:26;5.30;;;3.00;;
11927;SDS011;6023;47.070;15.126;2022-12-13T03:48:54;4.00;;;2.40;;
11927;SDS011;6023;47.070;15.126;2022-12-13T03:51:24;4.03;;;2.60;;
11927;SDS011;6023;47.070;15.126;2022-12-13T03:53:53;2.57;;;2.23;;
11927;SDS011;6023;47.070;15.126;2022-12-13T03:56:21;3.53;;;2.40;;
11927;SDS011;6023;47.070;15.126;2022-12-13T03:58:50;3.67;;;2.60;;
11927;SDS011;6023;47.070;15.126;2022-12-13T04:01:18;3.73;;;2.60;;
11927;SDS011;6023;47.070;15.126;2022-12-13T04:03:47;3.30;;;2.30;;
11927;SDS011;6023;47.070;15.126;2022-12-13T04:06:16;4.00;;;2.13;;
11927;SDS011;6023;47.070;15.126;2022-12-13T04:08:50;2.87;;;2.20;;
11927;SDS011;6023;47.070;15.126;2022-12-13T04:11:19;2.73;;;1.90;;
11927;SDS011;6023;47.070;15.126;2022-12-13T04:14:09;3.73;;;2.57;;
11927;SDS011;6023;47.070;15.126;2022-12-13T04:16:37;3.70;;;2.30;;
11927;SDS011;6023;47.070;15.126;2022-12-13T04:19:06;3.40;;;2.40;;
11927;SDS011;6023;47.070;15.126;2022-12-13T04:21:34;2.87;;;2.10;;
11927;SDS011;6023;47.070;15.126;2022-12-13T04:24:05;3.20;;;2.17;;
11927;SDS011;6023;47.070;15.126;2022-12-13T04:26:33;3.13;;;2.27;;
11927;SDS011;6023;47.070;15.126;2022-12-13T04:29:02;3.00;;;2.43;;
11927;SDS011;6023;47.070;15.126;2022-12-13T04:31:30;2.80;;;2.10;;
11927;SDS011;6023;47.070;15.126;2022-12-13T04:33:59;4.83;;;2.70;;
11927;SDS011;6023;47.070;15.126;2022-12-13T04:36:28;2.73;;;2.10;;
11927;SDS011;6023;47.070;15.126;2022-12-13T04:38:59;4.43;;;3.27;;
11927;SDS011;6023;47.070;15.126;2022-12-13T04:41:33;5.30;;;3.93;;
11927;SDS011;6023;47.070;15.126;2022-12-13T04:44:02;7.50;;;5.30;;
11927;SDS011;6023;47.070;15.126;2022-12-13T04:46:52;7.37;;;5.33;;
11927;SDS011;6023;47.070;15.126;2022-12-13T04:49:26;5.57;;;4.20;;
11927;SDS011;6023;47.070;15.126;2022-12-13T04:51:55;6.17;;;4.60;;
11927;SDS011;6023;47.070;15.126;2022-12-13T04:54:27;5.70;;;4.50;;
11927;SDS011;6023;47.070;15.126;2022-12-13T04:57:04;5.63;;;4.57;;
11927;SDS011;6023;47.070;15.126;2022-12-13T04:59:34;6.63;;;4.00;;
11927;SDS011;6023;47.070;15.126;2022-12-13T05:02:03;4.53;;;3.30;;
11927;SDS011;6023;47.070;15.126;2022-12-13T05:04:33;4.27;;;3.10;;
11927;SDS011;6023;47.070;15.126;2022-12-13T05:07:02;3.77;;;2.60;;
11927;SDS011;6023;47.070;15.126;2022-12-13T05:09:30;3.67;;;2.57;;
11927;SDS011;6023;47.070;15.126;2022-12-13T05:11:59;4.80;;;2.80;;
11927;SDS011;6023;47.070;15.126;2022-12-13T05:14:30;4.87;;;2.60;;
11927;SDS011;6023;47.070;15.126;2022-12-13T05:16:58;4.07;;;2.90;;
11927;SDS011;6023;47.070;15.126;2022-12-13T05:19:27;3.83;;;2.40;;
11927;SDS011;6023;47.070;15.126;2022-12-13T05:21:57;4.23;;;2.60;;
11927;SDS011;6023;47.070;15.126;2022-12-13T05:24:28;32.83;;;23.47;;
11927;SDS011;6023;47.070;15.126;2022-12-13T05:26:57;92.33;;;55.03;;
11927;SDS011;6023;47.070;15.126;2022-12-13T05:29:26;92.37;;;55.83;;
11927;SDS011;6023;47.070;15.126;2022-12-13T05:31:56;51.03;;;31.93;;
11927;SDS011;6023;47.070;15.126;2022-12-13T05:34:25;23.50;;;15.03;;
11927;SDS011;6023;47.070;15.126;2022-12-13T05:36:54;12.17;;;8.10;;
11927;SDS011;6023;47.070;15.126;2022-12-13T05:39:23;7.27;;;4.50;;
11927;SDS011;6023;47.070;15.126;2022-12-13T05:41:55;6.30;;;3.83;;
11927;SDS011;6023;47.070;15.126;2022-12-13T05:44:28;7.33;;;3.90;;
11927;SDS011;6023;47.070;15.126;2022-12-13T05:46:59;7.80;;;5.10;;
11927;SDS011;6023;47.070;15.126;2022-12-13T05:49:28;11.23;;;7.47;;
11927;SDS011;6023;47.070;15.126;2022-12-13T05:51:58;16.07;;;9.53;;
11927;SDS011;6023;47.070;15.126;2022-12-13T05:54:26;14.20;;;8.70;;
11927;SDS011;6023;47.070;15.126;2022-12-13T05:56:55;10.43;;;6.57;;
11927;SDS011;6023;47.070;15.126;2022-12-13T05:59:23;19.70;;;12.10;;
11927;SDS011;6023;47.070;15.126;2022-12-13T06:01:52;15.67;;;9.93;;
11927;SDS011;6023;47.070;15.126;2022-12-13T06:04:22;13.93;;;8.53;;
11927;SDS011;6023;47.070;15.126;2022-12-13T06:06:51;13.53;;;7.97;;
11927;SDS011;6023;47.070;15.126;2022-12-13T06:09:20;10.53;;;7.27;;
11927;SDS011;6023;47.070;15.126;2022-12-13T06:11:49;13.67;;;8.23;;
11927;SDS011;6023;47.070;15.126;2022-12-13T06:14:27;11.70;;;7.47;;
11927;SDS011;6023;47.070;15.126;2022-12-13T06:16:55;10.20;;;6.97;;
11927;SDS011;6023;47.070;15.126;2022-12-13T06:19:25;8.93;;;5.73;;
11927;SDS011;6023;47.070;15.126;2022-12-13T06:21:54;7.37;;;5.27;;
11927;SDS011;6023;47.070;15.126;2022-12-13T06:24:23;10.47;;;6.63;;
11927;SDS011;6023;47.070;15.126;2022-12-13T06:26:53;9.07;;;5.47;;
11927;SDS011;6023;47.070;15.126;2022-12-13T06:29:21;6.10;;;4.00;;
11927;SDS011;6023;47.070;15.126;2022-12-13T06:31:52;6.07;;;3.90;;
11927;SDS011;6023;47.070;15.126;2022-12-13T06:37:03;13.10;;;7.60;;
11927;SDS011;6023;47.070;15.126;2022-12-13T06:39:33;12.97;;;7.97;;
11927;SDS011;6023;47.070;15.126;2022-12-13T06:42:02;12.80;;;8.33;;
11927;SDS011;6023;47.070;15.126;2022-12-13T06:44:32;17.50;;;10.67;;
11927;SDS011;6023;47.070;15.126;2022-12-13T06:47:01;20.77;;;10.97;;
11927;SDS011;6023;47.070;15.126;2022-12-13T06:49:39;13.33;;;8.57;;
11927;SDS011;6023;47.070;15.126;2022-12-13T06:52:10;13.10;;;8.00;;
11927;SDS011;6023;47.070;15.126;2022-12-13T06:54:39;11.23;;;6.00;;
11927;SDS011;6023;47.070;15.126;2022-12-13T06:57:08;8.80;;;5.60;;
11927;SDS011;6023;47.070;15.126;2022-12-13T06:59:37;11.47;;;7.77;;
11927;SDS011;6023;47.070;15.126;2022-12-13T07:02:06;10.73;;;7.50;;
11927;SDS011;6023;47.070;15.126;2022-12-13T07:04:53;11.37;;;7.60;;
11927;SDS011;6023;47.070;15.126;2022-12-13T07:07:22;10.03;;;6.80;;
11927;SDS011;6023;47.070;15.126;2022-12-13T07:09:51;9.77;;;6.40;;
11927;SDS011;6023;47.070;15.126;2022-12-13T07:12:20;9.33;;;5.70;;
11927;SDS011;6023;47.070;15.126;2022-12-13T07:14:49;11.13;;;5.77;;
11927;SDS011;6023;47.070;15.126;2022-12-13T07:17:17;11.97;;;5.73;;
11927;SDS011;6023;47.070;15.126;2022-12-13T07:20:02;9.37;;;5.67;;
11927;SDS011;6023;47.070;15.126;2022-12-13T07:22:34;10.13;;;6.23;;
11927;SDS011;6023;47.070;15.126;2022-12-13T07:25:12;16.10;;;9.60;;
11927;SDS011;6023;47.070;15.126;2022-12-13T07:27:58;8.10;;;4.37;;
11927;SDS011;6023;47.070;15.126;2022-12-13T07:30:29;6.00;;;3.87;;
11927;SDS011;6023;47.070;15.126;2022-12-13T07:33:06;5.50;;;2.90;;
11927;SDS011;6023;47.070;15.126;2022-12-13T07:35:36;5.23;;;2.90;;
11927;SDS011;6023;47.070;15.126;2022-12-13T07:38:05;4.27;;;2.93;;
11927;SDS011;6023;47.070;15.126;2022-12-13T07:40:34;4.87;;;2.90;;
11927;SDS011;6023;47.070;15.126;2022-12-13T07:43:03;9.30;;;4.07;;
11927;SDS011;6023;47.070;15.126;2022-12-13T07:45:32;7.63;;;4.10;;
11927;SDS011;6023;47.070;15.126;2022-12-13T07:48:04;7.63;;;4.43;;
11927;SDS011;6023;47.070;15.126;2022-12-13T07:50:35;6.37;;;3.97;;
11927;SDS011;6023;47.070;15.126;2022-12-13T07:53:04;7.70;;;4.17;;
11927;SDS011;6023;47.070;15.126;2022-12-13T07:55:34;7.87;;;4.00;;
11927;SDS011;6023;47.070;15.126;2022-12-13T07:58:04;7.87;;;4.90;;
11927;SDS011;6023;47.070;15.126;2022-12-13T08:00:33;9.60;;;4.70;;
11927;SDS011;6023;47.070;15.126;2022-12-13T08:03:02;6.97;;;4.27;;
11927;SDS011;6023;47.070;15.126;2022-12-13T08:05:31;6.57;;;3.87;;
11927;SDS011;6023;47.070;15.126;2022-12-13T08:08:07;7.83;;;4.30;;
11927;SDS011;6023;47.070;15.126;2022-12-13T08:10:37;9.47;;;5.53;;
11927;SDS011;6023;47.070;15.126;2022-12-13T08:13:06;11.50;;;6.03;;
11927;SDS011;6023;47.070;15.126;2022-12-13T08:15:34;14.53;;;6.03;;
11927;SDS011;6023;47.070;15.126;2022-12-13T08:18:03;12.57;;;8.07;;
11927;SDS011;6023;47.070;15.126;2022-12-13T08:20:32;17.20;;;9.70;;
11927;SDS011;6023;47.070;15.126;2022-12-13T08:23:00;17.33;;;9.77;;
11927;SDS011;6023;47.070;15.126;2022-12-13T08:25:30;14.57;;;9.50;;
11927;SDS011;6023;47.070;15.126;2022-12-13T08:27:59;14.20;;;9.33;;
11927;SDS011;6023;47.070;15.126;2022-12-13T08:30:29;13.30;;;8.50;;
11927;SDS011;6023;47.070;15.126;2022-12-13T08:32:58;12.67;;;7.87;;
11927;SDS011;6023;47.070;15.126;2022-12-13T08:35:30;15.37;;;8.77;;
11927;SDS011;6023;47.070;15.126;2022-12-13T08:38:00;15.40;;;8.67;;
11927;SDS011;6023;47.070;15.126;2022-12-13T08:40:31;11.33;;;7.30;;
11927;SDS011;6023;47.070;15.126;2022-12-13T08:43:00;13.87;;;7.13;;
11927;SDS011;6023;47.070;15.126;2022-12-13T08:45:29;12.83;;;7.97;;
11927;SDS011;6023;47.070;15.126;2022-12-13T08:48:00;11.77;;;7.03;;
11927;SDS011;6023;47.070;15.126;2022-12-13T08:50:29;9.00;;;6.27;;
11927;SDS011;6023;47.070;15.126;2022-12-13T08:52:58;10.00;;;6.57;;
11927;SDS011;6023;47.070;15.126;2022-12-13T08:55:26;13.03;;;7.43;;
11927;SDS011;6023;47.070;15.126;2022-12-13T08:58:02;12.13;;;6.80;;
11927;SDS011;6023;47.070;15.126;2022-12-13T09:00:34;10.53;;;6.00;;
11927;SDS011;6023;47.070;15.126;2022-12-13T09:03:03;8.40;;;5.83;;
11927;SDS011;6023;47.070;15.126;2022-12-13T09:05:36;8.53;;;5.50;;
11927;SDS011;6023;47.070;15.126;2022-12-13T09:08:05;7.40;;;4.70;;
11927;SDS011;6023;47.070;15.126;2022-12-13T09:10:57;7.67;;;5.37;;
11927;SDS011;6023;47.070;15.126;2022-12-13T09:13:28;9.37;;;5.50;;
11927;SDS011;6023;47.070;15.126;2022-12-13T09:16:02;12.70;;;5.47;;
11927;SDS011;6023;47.070;15.126;2022-12-13T09:18:40;10.67;;;5.40;;
11927;SDS011;6023;47.070;15.126;2022-12-13T09:21:09;8.30;;;5.20;;
11927;SDS011;6023;47.070;15.126;2022-12-13T09:23:48;7.67;;;4.90;;
11927;SDS011;6023;47.070;15.126;2022-12-13T09:26:16;8.10;;;5.60;;
11927;SDS011;6023;47.070;15.126;2022-12-13T09:28:52;7.40;;;5.00;;
11927;SDS011;6023;47.070;15.126;2022-12-13T09:31:21;6.40;;;4.87;;
11927;SDS011;6023;47.070;15.126;2022-12-13T09:33:50;7.70;;;4.93;;
11927;SDS011;6023;47.070;15.126;2022-12-13T09:36:19;9.50;;;4.90;;
11927;SDS011;6023;47.070;15.126;2022-12-13T09:38:50;7.97;;;4.77;;
11927;SDS011;6023;47.070;15.126;2022-12-13T09:41:20;6.20;;;4.43;;
11927;SDS011;6023;47.070;15.126;2022-12-13T09:43:57;8.37;;;4.27;;
11927;SDS011;6023;47.070;15.126;2022-12-13T09:46:29;7.83;;;5.00;;
11927;SDS011;6023;47.070;15.126;2022-12-13T09:49:12;6.63;;;4.80;;
11927;SDS011;6023;47.070;15.126;2022-12-13T09:51:51;6.80;;;4.80;;
11927;SDS011;6023;47.070;15.126;2022-12-13T09:54:41;7.87;;;6.13;;
11927;SDS011;6023;47.070;15.126;2022-12-13T09:57:15;10.50;;;5.70;;
11927;SDS011;6023;47.070;15.126;2022-12-13T10:00:00;6.20;;;4.17;;
11927;SDS011;6023;47.070;15.126;2022-12-13T10:02:31;5.37;;;3.40;;
11927;SDS011;6023;47.070;15.126;2022-12-13T10:05:11;5.97;;;3.70;;
11927;SDS011;6023;47.070;15.126;2022-12-13T10:08:03;13.67;;;6.20;;
11927;SDS011;6023;47.070;15.126;2022-12-13T10:10:34;7.43;;;4.60;;
11927;SDS011;6023;47.070;15.126;2022-12-13T10:13:07;6.33;;;3.80;;
11927;SDS011;6023;47.070;15.126;2022-12-13T10:15:40;4.87;;;3.73;;
11927;SDS011;6023;47.070;15.126;2022-12-13T10:18:13;12.67;;;7.17;;
11927;SDS011;6023;47.070;15.126;2022-12-13T10:20:47;9.80;;;5.00;;
11927;SDS011;6023;47.070;15.126;2022-12-13T10:23:17;10.03;;;5.87;;
11927;SDS011;6023;47.070;15.126;2022-12-13T10:26:07;8.47;;;4.70;;
11927;SDS011;6023;47.070;15.126;2022-12-13T10:28:51;18.50;;;9.03;;
11927;SDS011;6023;47.070;15.126;2022-12-13T10:31:30;7.50;;;4.00;;
11927;SDS011;6023;47.070;15.126;2022-12-13T10:34:08;6.97;;;3.80;;
11927;SDS011;6023;47.070;15.126;2022-12-13T10:36:44;9.90;;;4.70;;
11927;SDS011;6023;47.070;15.126;2022-12-13T10:39:13;8.20;;;3.97;;
11927;SDS011;6023;47.070;15.126;2022-12-13T10:41:44;6.77;;;3.80;;
11927;SDS011;6023;47.070;15.126;2022-12-13T10:44:16;9.33;;;5.67;;
11927;SDS011;6023;47.070;15.126;2022-12-13T10:46:51;8.70;;;4.63;;
11927;SDS011;6023;47.070;15.126;2022-12-13T10:49:26;14.33;;;8.63;;
11927;SDS011;6023;47.070;15.126;2022-12-13T10:51:58;8.43;;;4.67;;
11927;SDS011;6023;47.070;15.126;2022-12-13T10:54:28;16.27;;;9.87;;
11927;SDS011;6023;47.070;15.126;2022-12-13T10:57:13;11.83;;;7.37;;
11927;SDS011;6023;47.070;15.126;2022-12-13T10:59:42;9.10;;;5.87;;
11927;SDS011;6023;47.070;15.126;2022-12-13T11:02:29;8.03;;;5.20;;
11927;SDS011;6023;47.070;15.126;2022-12-13T11:05:11;6.57;;;3.93;;
11927;SDS011;6023;47.070;15.126;2022-12-13T11:07:49;7.60;;;5.27;;
11927;SDS011;6023;47.070;15.126;2022-12-13T11:10:20;4.70;;;3.47;;
11927;SDS011;6023;47.070;15.126;2022-12-13T11:12:55;7.53;;;3.40;;
11927;SDS011;6023;47.070;15.126;2022-12-13T11:15:27;6.43;;;4.17;;
11927;SDS011;6023;47.070;15.126;2022-12-13T11:17:59;5.53;;;3.60;;
11927;SDS011;6023;47.070;15.126;2022-12-13T11:20:30;7.00;;;4.47;;
11927;SDS011;6023;47.070;15.126;2022-12-13T11:23:01;4.13;;;3.30;;
11927;SDS011;6023;47.070;15.126;2022-12-13T11:25:34;5.80;;;4.40;;
11927;SDS011;6023;47.070;15.126;2022-12-13T11:28:12;5.87;;;4.10;;
11927;SDS011;6023;47.070;15.126;2022-12-13T11:30:56;3.43;;;3.00;;
11927;SDS011;6023;47.070;15.126;2022-12-13T11:33:34;4.83;;;3.03;;
11927;SDS011;6023;47.070;15.126;2022-12-13T11:36:16;5.17;;;3.87;;
11927;SDS011;6023;47.070;15.126;2022-12-13T11:38:54;5.40;;;3.43;;
11927;SDS011;6023;47.070;15.126;2022-12-13T11:41:33;5.17;;;3.90;;
11927;SDS011;6023;47.070;15.126;2022-12-13T11:44:07;5.30;;;3.90;;
11927;SDS011;6023;47.070;15.126;2022-12-13T11:46:40;6.17;;;3.97;;
11927;SDS011;6023;47.070;15.126;2022-12-13T11:49:13;6.40;;;3.80;;
11927;SDS011;6023;47.070;15.126;2022-12-13T11:51:45;6.67;;;4.50;;
11927;SDS011;6023;47.070;15.126;2022-12-13T11:54:19;6.80;;;4.40;;
11927;SDS011;6023;47.070;15.126;2022-12-13T11:56:51;6.47;;;4.10;;
11927;SDS011;6023;47.070;15.126;2022-12-13T11:59:27;8.40;;;5.30;;
11927;SDS011;6023;47.070;15.126;2022-12-13T12:02:10;8.40;;;6.10;;
11927;SDS011;6023;47.070;15.126;2022-12-13T12:04:44;9.33;;;5.07;;
11927;SDS011;6023;47.070;15.126;2022-12-13T12:07:21;9.87;;;5.80;;
11927;SDS011;6023;47.070;15.126;2022-12-13T12:10:08;10.27;;;6.40;;
11927;SDS011;6023;47.070;15.126;2022-12-13T12:12:46;9.63;;;6.70;;
11927;SDS011;6023;47.070;15.126;2022-12-13T12:15:18;8.73;;;5.13;;
11927;SDS011;6023;47.070;15.126;2022-12-13T12:17:53;8.87;;;6.00;;
11927;SDS011;6023;47.070;15.126;2022-12-13T12:20:25;8.03;;;5.77;;
11927;SDS011;6023;47.070;15.126;2022-12-13T12:23:05;8.40;;;4.83;;
11927;SDS011;6023;47.070;15.126;2022-12-13T12:25:41;6.53;;;4.50;;
11927;SDS011;6023;47.070;15.126;2022-12-13T12:28:16;6.67;;;4.37;;
11927;SDS011;6023;47.070;15.126;2022-12-13T12:30:55;6.90;;;3.83;;
11927;SDS011;6023;47.070;15.126;2022-12-13T12:33:30;7.60;;;4.37;;
11927;SDS011;6023;47.070;15.126;2022-12-13T12:36:08;5.60;;;4.00;;
11927;SDS011;6023;47.070;15.126;2022-12-13T12:38:57;6.33;;;3.80;;
11927;SDS011;6023;47.070;15.126;2022-12-13T12:41:47;8.60;;;4.30;;
11927;SDS011;6023;47.070;15.126;2022-12-13T12:44:29;7.83;;;3.57;;
11927;SDS011;6023;47.070;15.126;2022-12-13T12:47:03;6.73;;;4.13;;
11927;SDS011;6023;47.070;15.126;2022-12-13T12:50:02;5.43;;;3.90;;
11927;SDS011;6023;47.070;15.126;2022-12-13T12:52:52;6.57;;;3.67;;
11927;SDS011;6023;47.070;15.126;2022-12-13T12:55:35;6.10;;;3.57;;
11927;SDS011;6023;47.070;15.126;2022-12-13T12:58:12;5.73;;;3.73;;
11927;SDS011;6023;47.070;15.126;2022-12-13T13:00:49;4.70;;;3.40;;
11927;SDS011;6023;47.070;15.126;2022-12-13T13:03:23;5.87;;;3.73;;
11927;SDS011;6023;47.070;15.126;2022-12-13T13:05:55;5.90;;;4.07;;
11927;SDS011;6023;47.070;15.126;2022-12-13T13:08:33;7.70;;;4.70;;
11927;SDS011;6023;47.070;15.126;2022-12-13T13:11:04;7.93;;;4.97;;
11927;SDS011;6023;47.070;15.126;2022-12-13T13:14:01;5.87;;;4.00;;
11927;SDS011;6023;47.070;15.126;2022-12-13T13:16:34;5.73;;;3.70;;
11927;SDS011;6023;47.070;15.126;2022-12-13T13:19:04;6.30;;;3.83;;
11927;SDS011;6023;47.070;15.126;2022-12-13T13:21:45;5.43;;;4.07;;
11927;SDS011;6023;47.070;15.126;2022-12-13T13:24:20;6.57;;;4.30;;
11927;SDS011;6023;47.070;15.126;2022-12-13T13:26:53;9.37;;;5.77;;
11927;SDS011;6023;47.070;15.126;2022-12-13T13:29:33;13.43;;;8.33;;
11927;SDS011;6023;47.070;15.126;2022-12-13T13:37:58;4.37;;;3.10;;
11927;SDS011;6023;47.070;15.126;2022-12-13T13:40:32;4.87;;;3.60;;
11927;SDS011;6023;47.070;15.126;2022-12-13T13:45:59;5.00;;;3.03;;
11927;SDS011;6023;47.070;15.126;2022-12-13T13:48:43;5.40;;;3.77;;
11927;SDS011;6023;47.070;15.126;2022-12-13T13:51:23;4.93;;;3.37;;
11927;SDS011;6023;47.070;15.126;2022-12-13T13:54:34;3.80;;;3.10;;
11927;SDS011;6023;47.070;15.126;2022-12-13T13:57:34;5.20;;;3.53;;
11927;SDS011;6023;47.070;15.126;2022-12-13T14:03:48;6.13;;;3.70;;
11927;SDS011;6023;47.070;15.126;2022-12-13T14:09:44;6.00;;;3.60;;
11927;SDS011;6023;47.070;15.126;2022-12-13T14:12:24;4.50;;;3.43;;
11927;SDS011;6023;47.070;15.126;2022-12-13T14:21:29;5.47;;;3.70;;
11927;SDS011;6023;47.070;15.126;2022-12-13T14:24:06;6.07;;;3.67;;
11927;SDS011;6023;47.070;15.126;2022-12-13T14:26:50;6.73;;;3.70;;
11927;SDS011;6023;47.070;15.126;2022-12-13T14:29:41;5.00;;;3.53;;
11927;SDS011;6023;47.070;15.126;2022-12-13T14:32:24;9.27;;;6.07;;
11927;SDS011;6023;47.070;15.126;2022-12-13T14:34:54;7.60;;;5.50;;
11927;SDS011;6023;47.070;15.126;2022-12-13T14:37:24;11.60;;;6.70;;
11927;SDS011;6023;47.070;15.126;2022-12-13T14:39:54;11.30;;;8.00;;
11927;SDS011;6023;47.070;15.126;2022-12-13T14:42:23;8.27;;;5.50;;
11927;SDS011;6023;47.070;15.126;2022-12-13T14:45:02;8.93;;;5.47;;
11927;SDS011;6023;47.070;15.126;2022-12-13T14:47:40;20.13;;;8.40;;
11927;SDS011;6023;47.070;15.126;2022-12-13T14:50:10;29.70;;;17.57;;
11927;SDS011;6023;47.070;15.126;2022-12-13T14:52:40;77.13;;;34.90;;
11927;SDS011;6023;47.070;15.126;2022-12-13T14:55:19;15.87;;;9.10;;
11927;SDS011;6023;47.070;15.126;2022-12-13T14:57:53;9.33;;;6.30;;
11927;SDS011;6023;47.070;15.126;2022-12-13T15:00:25;12.83;;;6.37;;
11927;SDS011;6023;47.070;15.126;2022-12-13T15:02:56;14.43;;;8.17;;
11927;SDS011;6023;47.070;15.126;2022-12-13T15:05:27;17.03;;;9.43;;
11927;SDS011;6023;47.070;15.126;2022-12-13T15:07:57;17.73;;;10.90;;
11927;SDS011;6023;47.070;15.126;2022-12-13T15:10:37;17.27;;;10.90;;
11927;SDS011;6023;47.070;15.126;2022-12-13T15:13:19;19.27;;;12.20;;
11927;SDS011;6023;47.070;15.126;2022-12-13T15:15:57;19.37;;;13.20;;
11927;SDS011;6023;47.070;15.126;2022-12-13T15:18:28;20.67;;;13.27;;
11927;SDS011;6023;47.070;15.126;2022-12-13T15:20:57;17.40;;;11.50;;
11927;SDS011;6023;47.070;15.126;2022-12-13T15:23:28;18.27;;;11.03;;
11927;SDS011;6023;47.070;15.126;2022-12-13T15:25:59;16.37;;;11.00;;
11927;SDS011;6023;47.070;15.126;2022-12-13T15:28:33;18.67;;;11.10;;
11927;SDS011;6023;47.070;15.126;2022-12-13T15:31:04;14.37;;;9.57;;
11927;SDS011;6023;47.070;15.126;2022-12-13T15:33:33;10.03;;;6.77;;
11927;SDS011;6023;47.070;15.126;2022-12-13T15:36:15;8.83;;;5.70;;
11927;SDS011;6023;47.070;15.126;2022-12-13T15:38:46;7.83;;;5.47;;
11927;SDS011;6023;47.070;15.126;2022-12-13T15:41:18;9.03;;;6.10;;
11927;SDS011;6023;47.070;15.126;2022-12-13T15:43:49;11.50;;;8.43;;
11927;SDS011;6023;47.070;15.126;2022-12-13T15:46:26;10.90;;;8.30;;
11927;SDS011;6023;47.070;15.126;2022-12-13T15:48:58;7.82;;;6.68;;
11927;SDS011;6023;47.070;15.126;2022-12-13T15:51:28;8.03;;;5.57;;